Time;durP1;ratioP1;P1;durP2;ratioP2;P2;SDS_P1;SDS_P2;PMS_P1;PMS_P2;Temp;Humidity;BMP_temperature;BMP_pressure;BME280_temperature;BME280_humidity;BME280_pressure;Samples;Min_cycle;Max_cycle;Signal;HPM_P1;HPM_P2
2023/03/17 00:00:35;;;;;;;26.95;16.55;;;18.70;99.90;;;;;;4590543;19;19925;-33
2023/03/17 00:02:24;;;;;;;26.58;16.58;;;18.70;99.90;;;;;;4588254;19;20132;-29
2023/03/17 00:03:57;;;;;;;27.23;17.73;;;18.70;99.90;;;;;;4588608;19;20014;-30
2023/03/17 00:05:33;;;;;;;27.45;17.23;;;18.70;99.90;;;;;;4590449;19;20017;-30
2023/03/17 00:07:04;;;;;;;24.88;15.95;;;18.70;99.90;;;;;;4589295;19;20014;-30
2023/03/17 00:08:36;;;;;;;24.88;16.02;;;18.70;99.90;;;;;;4589676;19;20496;-33
2023/03/17 00:10:16;;;;;;;24.27;15.68;;;18.80;99.90;;;;;;4589344;19;20092;-30
2023/03/17 00:11:47;;;;;;;23.63;16.08;;;18.80;99.90;;;;;;4588690;19;20011;-33
2023/03/17 00:13:20;;;;;;;25.27;15.15;;;18.80;99.90;;;;;;4587499;19;20038;-30
2023/03/17 00:14:52;;;;;;;23.80;14.60;;;18.80;99.90;;;;;;4587261;19;20402;-29
2023/03/17 00:16:25;;;;;;;25.30;15.65;;;18.80;99.90;;;;;;4589848;19;20410;-32
2023/03/17 00:17:57;;;;;;;21.42;13.52;;;18.80;99.90;;;;;;4588926;19;20031;-29
2023/03/17 00:19:32;;;;;;;24.02;14.85;;;18.80;99.90;;;;;;4588182;19;20018;-32
2023/03/17 00:21:03;;;;;;;23.13;14.77;;;18.80;99.90;;;;;;4589356;19;20017;-29
2023/03/17 00:22:35;;;;;;;22.33;14.10;;;18.80;99.90;;;;;;4588979;19;20093;-32
2023/03/17 00:24:10;;;;;;;21.85;13.45;;;18.80;99.90;;;;;;4588008;19;20473;-30
2023/03/17 00:25:42;;;;;;;23.85;15.32;;;18.80;99.90;;;;;;4587166;19;20011;-29
2023/03/17 00:27:14;;;;;;;20.55;14.25;;;18.80;99.90;;;;;;4587060;19;20010;-31
2023/03/17 00:28:45;;;;;;;21.35;13.85;;;18.80;99.90;;;;;;4587574;19;20015;-30
2023/03/17 00:30:18;;;;;;;21.88;13.98;;;18.80;99.90;;;;;;4586308;19;20010;-28
2023/03/17 00:31:50;;;;;;;20.55;13.25;;;18.80;99.90;;;;;;4586059;19;20011;-30
2023/03/17 00:33:26;;;;;;;23.80;14.75;;;18.80;99.90;;;;;;4588963;19;20018;-31
2023/03/17 00:34:57;;;;;;;24.02;15.40;;;18.80;99.90;;;;;;4589549;19;20044;-30
2023/03/17 00:36:31;;;;;;;23.67;14.82;;;18.80;99.90;;;;;;4589526;19;20006;-31
2023/03/17 00:38:03;;;;;;;22.67;14.93;;;18.80;99.90;;;;;;4587738;19;20394;-29
2023/03/17 00:39:35;;;;;;;25.58;16.58;;;18.80;99.90;;;;;;4588298;19;20499;-29
2023/03/17 00:41:11;;;;;;;23.35;14.95;;;18.80;99.90;;;;;;4588500;19;20014;-31
2023/03/17 00:42:42;;;;;;;24.23;14.63;;;18.80;99.90;;;;;;4586977;19;20014;-31
2023/03/17 00:44:13;;;;;;;;;;;18.80;99.90;;;;;;4588238;19;20006;-29
2023/03/17 00:45:45;;;;;;;21.17;13.27;;;18.80;99.90;;;;;;4587364;19;20259;-32
2023/03/17 00:47:17;;;;;;;21.30;13.00;;;18.80;99.90;;;;;;4587348;19;20010;-34
2023/03/17 00:48:48;;;;;;;20.60;12.88;;;18.80;99.90;;;;;;4585971;19;20033;-30
2023/03/17 00:50:21;;;;;;;23.00;14.45;;;18.80;99.90;;;;;;4589415;19;20506;-29
2023/03/17 00:51:53;;;;;;;19.38;12.50;;;18.80;99.90;;;;;;4588345;19;20372;-30
2023/03/17 00:53:25;;;;;;;21.67;14.23;;;18.90;99.90;;;;;;4589374;19;20050;-30
2023/03/17 00:54:57;;;;;;;21.38;14.10;;;18.90;99.90;;;;;;4587429;19;20085;-28
2023/03/17 00:56:29;;;;;;;19.90;13.27;;;18.80;99.90;;;;;;4587898;19;20011;-30
2023/03/17 00:58:01;;;;;;;20.52;12.80;;;18.90;99.90;;;;;;4586604;19;20018;-30
2023/03/17 00:59:38;;;;;;;19.17;12.40;;;18.80;99.90;;;;;;4587236;19;20407;-32
2023/03/17 01:01:10;;;;;;;19.92;13.20;;;18.90;99.90;;;;;;4586395;19;20014;-33
2023/03/17 01:02:41;;;;;;;18.50;12.60;;;18.90;99.90;;;;;;4586621;19;20022;-29
2023/03/17 01:04:13;;;;;;;18.98;12.85;;;18.90;99.90;;;;;;4586076;19;20489;-30
2023/03/17 01:05:45;;;;;;;20.25;13.38;;;18.90;99.90;;;;;;4586979;19;20820;-29
2023/03/17 01:07:17;;;;;;;19.92;13.73;;;18.90;99.90;;;;;;4588128;19;20501;-29
2023/03/17 01:08:48;;;;;;;21.05;12.60;;;18.90;99.90;;;;;;4588512;19;20407;-30
2023/03/17 01:10:25;;;;;;;21.05;12.73;;;18.90;99.90;;;;;;4587021;19;20038;-29
2023/03/17 01:11:57;;;;;;;19.30;12.52;;;18.90;99.90;;;;;;4587475;19;20472;-29
2023/03/17 01:13:29;;;;;;;20.30;13.25;;;18.90;99.90;;;;;;4588059;19;20011;-33
2023/03/17 01:15:00;;;;;;;19.00;12.48;;;18.90;99.90;;;;;;4587313;19;20018;-29
2023/03/17 01:16:32;;;;;;;19.17;12.38;;;18.90;99.90;;;;;;4586559;19;20025;-28
2023/03/17 01:18:04;;;;;;;20.75;12.88;;;18.90;99.90;;;;;;4589230;19;20010;-29
2023/03/17 01:19:36;;;;;;;20.13;12.60;;;18.90;99.90;;;;;;4593575;19;20018;-29
2023/03/17 01:21:07;;;;;;;23.30;14.98;;;18.90;99.90;;;;;;4593052;19;20476;-32
2023/03/17 01:22:39;;;;;;;;;;;19.00;99.90;;;;;;4593916;19;20015;-29
2023/03/17 01:24:10;;;;;;;22.73;14.20;;;18.90;99.90;;;;;;4592233;19;19922;-30
2023/03/17 01:25:41;;;;;;;20.23;13.40;;;18.90;99.90;;;;;;4592018;19;20047;-30
2023/03/17 01:27:13;;;;;;;20.98;13.10;;;18.90;99.90;;;;;;4590259;19;20074;-30
2023/03/17 01:28:45;;;;;;;20.95;13.88;;;18.90;99.90;;;;;;4591242;19;20030;-30
2023/03/17 01:30:27;;;;;;;;;;;18.90;99.90;;;;;;4591699;19;20014;-33
2023/03/17 01:31:58;;;;;;;20.00;12.70;;;18.90;99.90;;;;;;4589856;19;19934;-29
2023/03/17 01:33:30;;;;;;;20.13;13.88;;;18.90;99.90;;;;;;4590886;19;20014;-30
2023/03/17 01:35:03;;;;;;;20.58;13.63;;;18.80;99.90;;;;;;4593706;19;20033;-31
2023/03/17 01:36:36;;;;;;;23.25;13.93;;;18.80;99.90;;;;;;4591913;19;20066;-30
2023/03/17 01:38:07;;;;;;;23.15;14.35;;;18.80;99.90;;;;;;4592489;19;20035;-31
2023/03/17 01:39:42;;;;;;;19.10;13.00;;;18.80;99.90;;;;;;4592710;19;20019;-30
2023/03/17 01:41:13;;;;;;;;;;;18.70;99.90;;;;;;4593360;19;20035;-29
2023/03/17 01:42:49;;;;;;;19.20;12.55;;;18.70;99.90;;;;;;4591583;19;19907;-29
2023/03/17 01:44:22;;;;;;;18.80;12.75;;;18.70;99.90;;;;;;4591643;19;20350;-31
2023/03/17 01:46:16;;;;;;;19.73;12.88;;;18.70;99.90;;;;;;4591310;19;20019;-29
2023/03/17 01:47:47;;;;;;;;;;;18.70;99.90;;;;;;4592870;19;20010;-30
2023/03/17 01:49:21;;;;;;;21.52;13.75;;;18.60;99.90;;;;;;4591183;19;19919;-31
2023/03/17 01:50:53;;;;;;;22.52;14.40;;;18.60;99.90;;;;;;4590939;19;20043;-29
2023/03/17 01:52:25;;;;;;;19.75;13.15;;;18.60;99.90;;;;;;4590446;19;20006;-28
2023/03/17 01:53:57;;;;;;;20.10;13.05;;;18.60;99.90;;;;;;4589453;19;20025;-31
2023/03/17 01:55:29;;;;;;;20.83;12.95;;;18.60;99.90;;;;;;4591896;19;20014;-35
2023/03/17 01:57:15;;;;;;;18.45;12.40;;;18.50;99.90;;;;;;4591729;19;20014;-29
2023/03/17 01:58:48;;;;;;;19.73;12.98;;;18.50;99.90;;;;;;4592150;19;20011;-35
2023/03/17 02:00:22;;;;;;;20.98;13.88;;;18.50;99.90;;;;;;4591537;19;20465;-29
2023/03/17 02:01:56;;;;;;;20.50;12.75;;;18.50;99.90;;;;;;4591118;19;20078;-29
2023/03/17 02:03:28;;;;;;;20.02;12.80;;;18.50;99.90;;;;;;4590141;19;20014;-30
2023/03/17 02:05:03;;;;;;;20.42;12.88;;;18.50;99.90;;;;;;4591450;19;20014;-29
2023/03/17 02:06:34;;;;;;;18.33;11.95;;;18.50;99.90;;;;;;4589211;19;20082;-33
2023/03/17 02:08:13;;;;;;;19.00;12.02;;;18.50;99.90;;;;;;4588412;19;20010;-29
2023/03/17 02:09:45;;;;;;;20.00;12.30;;;18.50;99.90;;;;;;4588814;19;20019;-28
2023/03/17 02:11:18;;;;;;;18.38;12.63;;;18.50;99.90;;;;;;4586607;19;20019;-31
2023/03/17 02:12:52;;;;;;;20.20;13.55;;;18.40;99.90;;;;;;4588289;19;20072;-29
2023/03/17 02:14:24;;;;;;;19.00;12.25;;;18.40;99.90;;;;;;4587920;19;20007;-30
2023/03/17 02:15:55;;;;;;;19.67;12.50;;;18.40;99.90;;;;;;4588846;19;20042;-30
2023/03/17 02:17:27;;;;;;;20.67;13.60;;;18.40;99.90;;;;;;4589098;19;20010;-33
2023/03/17 02:18:59;;;;;;;;;;;18.40;99.90;;;;;;4590395;19;20077;-30
2023/03/17 02:20:30;;;;;;;16.83;12.23;;;18.40;99.90;;;;;;4588610;19;19922;-30
2023/03/17 02:22:02;;;;;;;;;;;18.30;99.90;;;;;;4588957;19;20022;-31
2023/03/17 02:23:34;;;;;;;19.17;12.63;;;18.30;99.90;;;;;;4587911;19;19925;-32
2023/03/17 02:25:06;;;;;;;18.98;12.20;;;18.40;99.90;;;;;;4588083;19;20014;-30
2023/03/17 02:26:38;;;;;;;18.50;11.98;;;18.30;99.90;;;;;;4587478;19;20361;-30
2023/03/17 02:28:15;;;;;;;21.13;13.63;;;18.30;99.90;;;;;;4590130;19;20010;-29
2023/03/17 02:29:46;;;;;;;18.92;12.43;;;18.30;99.90;;;;;;4589766;19;20016;-30
2023/03/17 02:31:17;;;;;;;19.55;13.40;;;18.30;99.90;;;;;;4589450;19;20043;-32
2023/03/17 02:32:49;;;;;;;17.95;11.93;;;18.30;99.90;;;;;;4588890;19;20104;-31
2023/03/17 02:34:22;;;;;;;19.63;12.70;;;18.30;99.90;;;;;;4588531;19;20018;-30
2023/03/17 02:35:53;;;;;;;17.85;11.10;;;18.20;99.90;;;;;;4588174;19;20019;-28
2023/03/17 02:37:25;;;;;;;17.63;12.25;;;18.30;99.90;;;;;;4588484;19;20014;-30
2023/03/17 02:38:56;;;;;;;17.05;11.48;;;18.30;99.90;;;;;;4589897;19;20062;-33
2023/03/17 02:40:29;;;;;;;18.00;11.05;;;18.20;99.90;;;;;;4589245;19;20026;-30
2023/03/17 02:42:01;;;;;;;17.60;12.10;;;18.20;99.90;;;;;;4589866;19;20014;-30
2023/03/17 02:43:32;;;;;;;17.55;12.32;;;18.20;99.90;;;;;;4591492;19;20010;-33
2023/03/17 02:45:05;;;;;;;15.10;10.55;;;18.20;99.90;;;;;;4591916;19;20491;-29
2023/03/17 02:46:36;;;;;;;16.67;11.10;;;18.20;99.90;;;;;;4592030;19;20106;-30
2023/03/17 02:48:08;;;;;;;15.75;10.68;;;18.20;99.90;;;;;;4591000;19;20357;-31
2023/03/17 02:49:40;;;;;;;17.90;11.23;;;18.20;99.90;;;;;;4589517;19;20039;-31
2023/03/17 02:51:11;;;;;;;;;;;18.20;99.90;;;;;;4588416;19;20120;-31
2023/03/17 02:52:42;;;;;;;18.80;11.75;;;18.20;99.90;;;;;;4589077;19;20238;-29
2023/03/17 02:54:14;;;;;;;16.80;11.10;;;18.20;99.90;;;;;;4589864;19;20367;-31
2023/03/17 02:55:45;;;;;;;;;;;18.20;99.90;;;;;;4590228;19;20019;-32
2023/03/17 02:57:16;;;;;;;16.17;10.60;;;18.20;99.90;;;;;;4589253;19;19923;-30
2023/03/17 02:58:47;;;;;;;16.50;11.05;;;18.20;99.90;;;;;;4591979;19;20013;-30
2023/03/17 03:00:20;;;;;;;16.20;11.48;;;18.10;99.90;;;;;;4591233;19;20014;-30
2023/03/17 03:01:52;;;;;;;15.45;9.95;;;18.10;99.90;;;;;;4590704;19;20367;-30
2023/03/17 03:03:24;;;;;;;17.38;11.43;;;18.10;99.90;;;;;;4588949;19;20007;-31
2023/03/17 03:04:56;;;;;;;;;;;18.10;99.90;;;;;;4591139;19;20037;-29
2023/03/17 03:06:29;;;;;;;16.80;11.23;;;18.10;99.90;;;;;;4589857;19;20260;-29
2023/03/17 03:08:00;;;;;;;17.25;11.35;;;18.10;99.90;;;;;;4589648;19;20018;-30
2023/03/17 03:09:33;;;;;;;15.25;9.88;;;18.00;99.90;;;;;;4589567;19;20022;-28
2023/03/17 03:11:05;;;;;;;15.93;10.57;;;18.10;99.90;;;;;;4587774;19;20037;-30
2023/03/17 03:12:37;;;;;;;15.10;10.48;;;18.00;99.90;;;;;;4588765;19;20010;-29
2023/03/17 03:14:09;;;;;;;16.20;10.18;;;18.10;99.90;;;;;;4591441;19;20002;-30
2023/03/17 03:15:41;;;;;;;14.18;10.20;;;18.00;99.90;;;;;;4590810;19;20429;-30
2023/03/17 03:17:14;;;;;;;16.42;11.07;;;18.00;99.90;;;;;;4590073;19;20461;-29
2023/03/17 03:18:46;;;;;;;;;;;18.00;99.90;;;;;;4590297;19;20027;-31
2023/03/17 03:20:19;;;;;;;14.20;9.93;;;18.00;99.90;;;;;;4589122;19;19925;-30
2023/03/17 03:21:50;;;;;;;13.93;9.85;;;18.00;99.90;;;;;;4588612;19;20338;-28
2023/03/17 03:23:23;;;;;;;15.57;10.10;;;18.00;99.90;;;;;;4588654;19;20022;-29
2023/03/17 03:24:54;;;;;;;16.42;10.73;;;18.00;99.90;;;;;;4588468;19;20035;-29
2023/03/17 03:26:26;;;;;;;15.45;10.52;;;18.00;99.90;;;;;;4588708;19;20010;-29
2023/03/17 03:27:57;;;;;;;15.43;10.55;;;18.00;99.90;;;;;;4589859;19;20373;-31
2023/03/17 03:29:28;;;;;;;16.23;10.27;;;18.00;99.90;;;;;;4590365;19;20487;-29
2023/03/17 03:31:00;;;;;;;15.38;10.45;;;18.00;99.90;;;;;;4589916;19;20464;-29
2023/03/17 03:32:33;;;;;;;14.38;10.18;;;17.90;99.90;;;;;;4588413;19;20022;-33
2023/03/17 03:34:06;;;;;;;15.25;10.27;;;17.90;99.90;;;;;;4589136;19;20019;-30
2023/03/17 03:35:37;;;;;;;15.43;9.93;;;17.90;99.90;;;;;;4587374;19;20022;-31
2023/03/17 03:37:08;;;;;;;14.57;10.52;;;17.90;99.90;;;;;;4588716;19;20017;-31
2023/03/17 03:38:40;;;;;;;15.07;8.95;;;17.90;99.90;;;;;;4588209;19;20015;-29
2023/03/17 03:40:12;;;;;;;14.75;9.45;;;17.90;99.90;;;;;;4591304;19;20018;-35
2023/03/17 03:41:43;;;;;;;15.80;10.55;;;17.90;99.90;;;;;;4589255;19;20044;-31
2023/03/17 03:43:15;;;;;;;;;;;17.90;99.90;;;;;;4591089;19;20033;-29
2023/03/17 03:44:46;;;;;;;13.07;9.25;;;17.90;99.90;;;;;;4589902;19;20279;-30
2023/03/17 03:46:17;;;;;;;14.70;9.65;;;17.90;99.90;;;;;;4589853;19;20022;-30
2023/03/17 03:47:49;;;;;;;13.00;9.40;;;17.90;99.90;;;;;;4589160;19;20017;-33
2023/03/17 03:49:21;;;;;;;14.57;9.43;;;17.90;99.90;;;;;;4588683;19;20381;-30
2023/03/17 03:50:59;;;;;;;15.25;9.40;;;17.90;99.90;;;;;;4588602;19;20074;-30
2023/03/17 03:52:31;;;;;;;15.73;10.05;;;17.90;99.90;;;;;;4588699;19;20018;-37
2023/03/17 03:54:02;;;;;;;14.43;9.82;;;17.80;99.90;;;;;;4585380;19;20147;-32
2023/03/17 03:55:33;;;;;;;13.70;9.88;;;17.90;99.90;;;;;;4587275;19;20010;-31
2023/03/17 03:57:05;;;;;;;12.90;9.20;;;17.80;99.90;;;;;;4589671;19;20010;-30
2023/03/17 03:58:37;;;;;;;12.48;8.70;;;17.90;99.90;;;;;;4589768;19;20022;-30
2023/03/17 04:00:09;;;;;;;14.05;9.18;;;17.90;99.90;;;;;;4589898;19;20361;-29
2023/03/17 04:01:42;;;;;;;15.57;10.15;;;17.80;99.90;;;;;;4589255;19;20025;-28
2023/03/17 04:03:13;;;;;;;13.70;9.18;;;17.80;99.90;;;;;;4589209;19;20496;-32
2023/03/17 04:04:46;;;;;;;14.05;9.30;;;17.80;99.90;;;;;;4588668;19;20479;-29
2023/03/17 04:06:18;;;;;;;14.80;9.73;;;17.80;99.90;;;;;;4588446;19;20052;-30
2023/03/17 04:07:50;;;;;;;13.60;9.07;;;17.80;99.90;;;;;;4588232;19;20599;-31
2023/03/17 04:09:21;;;;;;;12.43;8.50;;;17.80;99.90;;;;;;4587828;19;20006;-30
2023/03/17 04:10:53;;;;;;;;;;;17.80;99.90;;;;;;4586160;19;20084;-30
2023/03/17 04:12:24;;;;;;;12.55;8.48;;;17.80;99.90;;;;;;4588174;19;20245;-30
2023/03/17 04:13:57;;;;;;;12.98;9.65;;;17.80;99.90;;;;;;4589850;19;20017;-30
2023/03/17 04:15:28;;;;;;;14.45;10.02;;;17.80;99.90;;;;;;4589670;19;20022;-32
2023/03/17 04:17:00;;;;;;;14.27;10.00;;;17.80;99.90;;;;;;4588260;19;20013;-28
2023/03/17 04:18:31;;;;;;;;;;;17.70;99.90;;;;;;4588838;19;20014;-29
2023/03/17 04:20:03;;;;;;;15.77;9.95;;;17.80;99.90;;;;;;4587772;19;19925;-32
2023/03/17 04:21:35;;;;;;;15.90;10.25;;;17.70;99.90;;;;;;4587607;19;20022;-30
2023/03/17 04:23:06;;;;;;;15.52;10.73;;;17.80;99.90;;;;;;4590024;19;20525;-32
2023/03/17 04:24:38;;;;;;;14.15;9.20;;;17.70;99.90;;;;;;4589021;19;20015;-31
2023/03/17 04:26:09;;;;;;;13.48;9.10;;;17.70;99.90;;;;;;4588184;19;20070;-31
2023/03/17 04:27:41;;;;;;;14.15;9.60;;;17.70;99.90;;;;;;4588554;19;20010;-33
2023/03/17 04:29:14;;;;;;;15.52;10.20;;;17.70;99.90;;;;;;4586049;19;20066;-30
2023/03/17 04:30:46;;;;;;;14.20;9.50;;;17.70;99.90;;;;;;4588755;19;20018;-27
2023/03/17 04:32:17;;;;;;;12.30;9.18;;;17.70;99.90;;;;;;4587166;19;20006;-30
2023/03/17 04:33:48;;;;;;;13.13;9.45;;;17.70;99.90;;;;;;4588574;19;20011;-28
2023/03/17 04:35:22;;;;;;;12.55;9.82;;;17.70;99.90;;;;;;4588786;19;20041;-30
2023/03/17 04:36:54;;;;;;;14.35;9.45;;;17.80;99.90;;;;;;4584912;19;20017;-30
2023/03/17 04:38:25;;;;;;;13.45;9.13;;;17.80;99.90;;;;;;4589083;19;20010;-31
2023/03/17 04:39:56;;;;;;;13.63;9.25;;;17.90;99.90;;;;;;4589212;19;20026;-26
2023/03/17 04:41:27;;;;;;;14.32;9.43;;;17.90;99.90;;;;;;4587807;19;20015;-26
2023/03/17 04:43:00;;;;;;;12.98;8.68;;;18.00;99.90;;;;;;4588437;19;20551;-29
2023/03/17 04:44:32;;;;;;;13.15;8.90;;;18.10;99.90;;;;;;4587452;19;20014;-30
2023/03/17 04:46:04;;;;;;;12.95;8.90;;;18.20;99.90;;;;;;4589439;19;20014;-26
2023/03/17 04:47:36;;;;;;;12.70;8.10;;;18.30;99.90;;;;;;4588081;19;20509;-27
2023/03/17 04:49:09;;;;;;;10.65;7.57;;;18.40;99.90;;;;;;4589156;19;20014;-32
2023/03/17 04:50:41;;;;;;;;;;;18.60;99.90;;;;;;4589739;19;20465;-28
2023/03/17 04:52:13;;;;;;;12.80;8.07;;;18.70;99.90;;;;;;4587966;19;19922;-30
2023/03/17 04:53:44;;;;;;;11.50;7.63;;;18.80;99.90;;;;;;4590526;19;20011;-30
2023/03/17 04:55:17;;;;;;;12.85;8.55;;;19.00;99.90;;;;;;4593616;19;20014;-28
2023/03/17 04:56:49;;;;;;;12.25;8.10;;;19.20;99.90;;;;;;4591693;19;20026;-33
2023/03/17 04:58:20;;;;;;;12.38;7.93;;;19.30;99.90;;;;;;4592544;19;20034;-29
2023/03/17 04:59:52;;;;;;;11.80;8.05;;;19.40;99.90;;;;;;4592793;19;20022;-28
2023/03/17 05:01:23;;;;;;;12.65;8.27;;;19.50;99.90;;;;;;4592360;19;20015;-33
2023/03/17 05:02:54;;;;;;;13.38;8.77;;;19.60;99.90;;;;;;4591885;19;20015;-30
2023/03/17 05:04:25;;;;;;;14.05;9.02;;;19.60;99.90;;;;;;4590014;19;20038;-29
2023/03/17 05:05:59;;;;;;;12.43;8.02;;;19.70;99.90;;;;;;4592134;19;20010;-27
2023/03/17 05:07:31;;;;;;;15.30;8.50;;;19.80;99.90;;;;;;4591546;19;20650;-29
2023/03/17 05:09:05;;;;;;;14.48;9.13;;;19.80;99.90;;;;;;4593105;19;20013;-28
2023/03/17 05:10:37;;;;;;;13.63;8.07;;;19.90;99.90;;;;;;4592799;19;20052;-30
2023/03/17 05:12:09;;;;;;;16.05;8.40;;;19.90;99.90;;;;;;4591739;19;20007;-30
2023/03/17 05:13:40;;;;;;;;;;;19.90;99.90;;;;;;4594850;19;20025;-32
2023/03/17 05:15:12;;;;;;;13.52;8.27;;;20.00;99.90;;;;;;4593211;19;19919;-29
2023/03/17 05:16:49;;;;;;;14.63;9.00;;;20.00;99.90;;;;;;4590240;19;20011;-30
2023/03/17 05:18:22;;;;;;;21.63;11.13;;;20.00;99.90;;;;;;4589899;19;20477;-30
2023/03/17 05:19:54;;;;;;;17.40;10.73;;;20.10;99.90;;;;;;4589948;19;20039;-30
2023/03/17 05:21:25;;;;;;;20.20;10.45;;;20.10;99.90;;;;;;4593198;19;20022;-32
2023/03/17 05:22:58;;;;;;;17.25;11.02;;;20.00;99.90;;;;;;4592188;19;20024;-29
2023/03/17 05:24:29;;;;;;;17.73;11.52;;;20.00;99.90;;;;;;4592495;19;20015;-31
2023/03/17 05:26:01;;;;;;;18.50;11.35;;;20.00;99.90;;;;;;4591261;19;20018;-30
2023/03/17 05:27:32;;;;;;;18.65;11.88;;;19.90;99.90;;;;;;4591093;19;20038;-29
2023/03/17 05:29:04;;;;;;;17.88;11.65;;;19.90;99.90;;;;;;4591815;19;20344;-29
2023/03/17 05:30:36;;;;;;;19.55;12.77;;;19.90;99.90;;;;;;4591890;19;20015;-30
2023/03/17 05:32:07;;;;;;;20.27;12.25;;;19.90;99.90;;;;;;4586261;19;20007;-29
2023/03/17 05:33:39;;;;;;;;;;;19.80;99.90;;;;;;4589937;19;20540;-32
2023/03/17 05:35:11;;;;;;;;;;;19.80;99.90;;;;;;4588489;19;19918;-30
2023/03/17 05:36:43;;;;;;;17.55;11.95;;;19.80;99.90;;;;;;4590987;19;19915;-29
2023/03/17 05:38:15;;;;;;;15.45;10.75;;;19.80;99.90;;;;;;4592859;19;20014;-29
2023/03/17 05:39:46;;;;;;;16.45;10.77;;;19.80;99.90;;;;;;4592730;19;20002;-32
2023/03/17 05:41:17;;;;;;;19.63;11.73;;;19.80;99.90;;;;;;4592679;19;20038;-32
2023/03/17 05:42:52;;;;;;;;;;;19.70;99.90;;;;;;4591664;19;20014;-30
2023/03/17 05:44:23;;;;;;;15.82;10.93;;;19.70;99.90;;;;;;4591072;19;19949;-31
2023/03/17 05:45:56;;;;;;;17.23;11.65;;;19.60;99.90;;;;;;4589983;19;20019;-32
2023/03/17 05:47:27;;;;;;;;;;;19.60;99.90;;;;;;4591425;19;20017;-29
2023/03/17 05:48:58;;;;;;;18.10;10.93;;;19.60;99.90;;;;;;4590166;19;19915;-29
2023/03/17 05:50:30;;;;;;;14.48;9.60;;;19.50;99.90;;;;;;4590345;19;20022;-28
2023/03/17 05:52:02;;;;;;;15.27;10.50;;;19.50;99.90;;;;;;4591729;19;20095;-28
2023/03/17 05:53:35;;;;;;;13.60;9.52;;;19.50;99.90;;;;;;4592788;19;20015;-32
2023/03/17 05:55:07;;;;;;;15.90;10.45;;;19.50;99.90;;;;;;4592059;19;20018;-29
2023/03/17 05:56:39;;;;;;;14.63;9.32;;;19.60;99.90;;;;;;4589934;19;20477;-28
2023/03/17 05:58:10;;;;;;;16.40;10.23;;;19.60;99.90;;;;;;4591320;19;20463;-28
2023/03/17 05:59:41;;;;;;;13.38;8.77;;;19.70;99.90;;;;;;4589020;19;20014;-29
2023/03/17 06:01:13;;;;;;;;;;;19.70;99.90;;;;;;4590927;19;20371;-28
2023/03/17 06:02:44;;;;;;;14.25;9.60;;;19.80;99.90;;;;;;4590411;19;19930;-30
2023/03/17 06:04:16;;;;;;;;;;;19.90;99.90;;;;;;4589382;19;20011;-29
2023/03/17 06:05:47;;;;;;;15.02;8.75;;;20.00;99.90;;;;;;4590589;19;20044;-27
2023/03/17 06:07:19;;;;;;;15.05;9.43;;;20.10;99.90;;;;;;4591003;19;20358;-28
2023/03/17 06:08:51;;;;;;;;;;;20.20;99.90;;;;;;4593245;19;20018;-29
2023/03/17 06:10:23;;;;;;;13.35;8.52;;;20.30;99.90;;;;;;4591451;19;19922;-33
2023/03/17 06:11:55;;;;;;;15.20;9.25;;;20.40;99.90;;;;;;4589369;19;20497;-29
2023/03/17 06:13:27;;;;;;;14.48;8.82;;;20.40;99.90;;;;;;4590778;19;20492;-28
2023/03/17 06:14:59;;;;;;;;;;;20.50;99.90;;;;;;4591264;19;20429;-26
2023/03/17 06:16:32;;;;;;;15.70;9.10;;;20.60;99.90;;;;;;4589347;19;19918;-29
2023/03/17 06:18:04;;;;;;;13.38;8.63;;;20.60;99.90;;;;;;4592404;19;20052;-29
2023/03/17 06:19:35;;;;;;;16.90;9.23;;;20.70;99.90;;;;;;4592146;19;20021;-30
2023/03/17 06:21:06;;;;;;;12.90;8.30;;;20.70;99.90;;;;;;4591378;19;20395;-28
2023/03/17 06:22:38;;;;;;;13.85;9.20;;;20.80;99.90;;;;;;4591980;19;20019;-30
2023/03/17 06:24:10;;;;;;;13.13;8.38;;;20.80;99.90;;;;;;4590970;19;20359;-31
2023/03/17 06:25:41;;;;;;;14.05;8.60;;;20.80;99.90;;;;;;4590291;19;20015;-28
2023/03/17 06:27:13;;;;;;;13.25;8.15;;;20.90;99.90;;;;;;4589781;19;20015;-28
2023/03/17 06:28:45;;;;;;;12.63;8.45;;;20.90;99.90;;;;;;4590520;19;20567;-28
2023/03/17 06:30:16;;;;;;;13.73;8.52;;;20.90;99.90;;;;;;4589452;19;20031;-27
2023/03/17 06:31:49;;;;;;;13.85;8.35;;;21.00;99.90;;;;;;4589178;19;20015;-30
2023/03/17 06:33:22;;;;;;;11.68;8.15;;;21.00;99.90;;;;;;4592313;19;20766;-26
2023/03/17 06:34:53;;;;;;;13.90;9.15;;;21.00;99.90;;;;;;4590753;19;20445;-26
2023/03/17 06:36:26;;;;;;;14.32;9.10;;;21.00;99.90;;;;;;4589393;19;20410;-29
2023/03/17 06:37:58;;;;;;;11.88;8.32;;;21.00;99.90;;;;;;4591314;19;20385;-29
2023/03/17 06:39:29;;;;;;;13.75;8.98;;;21.00;99.90;;;;;;4591219;19;20014;-27
2023/03/17 06:41:02;;;;;;;;;;;20.90;99.90;;;;;;4591250;19;20011;-30
2023/03/17 06:42:33;;;;;;;12.65;8.18;;;20.90;99.90;;;;;;4589837;19;19919;-30
2023/03/17 06:44:07;;;;;;;14.43;9.07;;;20.90;99.90;;;;;;4589882;19;20082;-31
2023/03/17 06:45:38;;;;;;;12.40;8.52;;;20.90;99.90;;;;;;4589594;19;20018;-34
2023/03/17 06:47:10;;;;;;;12.90;8.27;;;20.80;99.90;;;;;;4589654;19;20435;-31
2023/03/17 06:48:42;;;;;;;10.98;8.07;;;20.80;99.90;;;;;;4590722;19;20011;-27
2023/03/17 06:50:13;;;;;;;13.52;8.85;;;20.80;99.90;;;;;;4591056;19;20015;-29
2023/03/17 06:51:46;;;;;;;11.80;8.07;;;20.70;99.90;;;;;;4591261;19;20015;-29
2023/03/17 06:53:18;;;;;;;13.68;8.38;;;20.70;99.90;;;;;;4590723;19;20049;-33
2023/03/17 06:54:50;;;;;;;11.52;8.35;;;20.60;99.90;;;;;;4589226;19;20472;-28
2023/03/17 06:56:21;;;;;;;12.35;7.63;;;20.60;99.90;;;;;;4588143;19;20486;-29
2023/03/17 06:57:54;;;;;;;12.45;7.97;;;20.60;99.90;;;;;;4591318;19;20010;-30
2023/03/17 06:59:29;;;;;;;11.65;7.72;;;20.50;99.90;;;;;;4588100;19;20018;-30
2023/03/17 07:01:01;;;;;;;16.98;10.07;;;20.50;99.90;;;;;;4588113;19;20705;-31
2023/03/17 07:02:32;;;;;;;17.65;10.93;;;20.60;99.90;;;;;;4588722;19;20017;-30
2023/03/17 07:04:05;;;;;;;14.85;10.05;;;20.50;99.90;;;;;;4587535;19;20021;-34
2023/03/17 07:05:38;;;;;;;16.10;9.88;;;20.50;99.90;;;;;;4591372;19;20027;-28
2023/03/17 07:07:09;;;;;;;18.75;9.60;;;20.40;99.90;;;;;;4589386;19;20022;-30
2023/03/17 07:08:42;;;;;;;12.77;9.27;;;20.30;99.90;;;;;;4591223;19;20018;-31
2023/03/17 07:10:14;;;;;;;;;;;20.30;99.90;;;;;;4590991;19;20086;-29
2023/03/17 07:11:48;;;;;;;13.23;9.07;;;20.30;99.90;;;;;;4589604;19;19925;-31
2023/03/17 07:13:21;;;;;;;11.82;8.20;;;20.20;99.90;;;;;;4589620;19;20038;-34
2023/03/17 07:14:53;;;;;;;13.07;8.27;;;20.20;99.90;;;;;;4589303;19;20018;-31
2023/03/17 07:16:24;;;;;;;12.32;8.30;;;20.10;99.90;;;;;;4586910;19;20011;-31
2023/03/17 07:17:55;;;;;;;;;;;20.10;99.90;;;;;;4591409;19;20024;-30
2023/03/17 07:19:27;;;;;;;13.52;8.48;;;20.10;99.90;;;;;;4590632;19;19918;-29
2023/03/17 07:20:58;;;;;;;13.07;8.35;;;20.00;99.90;;;;;;4590576;19;20476;-31
2023/03/17 07:22:29;;;;;;;12.45;7.78;;;20.00;99.90;;;;;;4589884;19;20345;-29
2023/03/17 07:24:01;;;;;;;13.57;7.95;;;19.90;99.90;;;;;;4589411;19;20438;-29
2023/03/17 07:25:35;;;;;;;12.00;8.27;;;19.90;99.90;;;;;;4588904;19;20477;-29
2023/03/17 07:27:07;;;;;;;14.00;9.25;;;19.80;99.90;;;;;;4588471;19;20145;-34
2023/03/17 07:28:40;;;;;;;14.43;8.80;;;19.80;99.90;;;;;;4588473;19;20026;-31
2023/03/17 07:30:13;;;;;;;12.88;8.73;;;19.80;99.90;;;;;;4587024;19;20372;-27
2023/03/17 07:31:45;;;;;;;12.40;8.48;;;19.80;99.90;;;;;;4587198;19;20010;-30
2023/03/17 07:33:22;;;;;;;15.60;8.65;;;19.70;99.90;;;;;;4588559;19;20035;-30
2023/03/17 07:34:54;;;;;;;12.25;8.23;;;19.70;99.90;;;;;;4589761;19;20045;-31
2023/03/17 07:36:26;;;;;;;12.77;7.88;;;19.60;99.90;;;;;;4588568;19;20029;-30
2023/03/17 07:37:57;;;;;;;;;;;19.50;99.90;;;;;;4591189;19;20461;-31
2023/03/17 07:39:29;;;;;;;12.38;8.18;;;19.50;99.90;;;;;;4589587;19;20258;-32
2023/03/17 07:41:00;;;;;;;;;;;19.50;99.90;;;;;;4589947;19;20018;-30
2023/03/17 07:42:32;;;;;;;13.95;8.95;;;19.50;99.90;;;;;;4588958;19;19919;-29
2023/03/17 07:44:04;;;;;;;14.32;8.60;;;19.50;99.90;;;;;;4587776;19;20011;-30
2023/03/17 07:45:36;;;;;;;11.88;8.38;;;19.40;99.90;;;;;;4587508;19;20014;-28
2023/03/17 07:47:09;;;;;;;12.98;7.82;;;19.40;99.90;;;;;;4589383;19;20048;-29
2023/03/17 07:48:42;;;;;;;15.00;8.75;;;19.40;99.90;;;;;;4589721;19;20030;-31
2023/03/17 07:50:14;;;;;;;11.68;8.10;;;19.40;99.90;;;;;;4589662;19;20010;-30
2023/03/17 07:51:49;;;;;;;12.77;7.88;;;19.40;99.90;;;;;;4587887;19;20022;-28
2023/03/17 07:53:22;;;;;;;14.30;9.25;;;19.40;99.90;;;;;;4589179;19;20014;-31
2023/03/17 07:54:54;;;;;;;13.65;9.13;;;19.40;99.90;;;;;;4588407;19;20014;-32
2023/03/17 07:56:52;;;;;;;14.95;9.00;;;19.30;99.90;;;;;;4588256;19;20017;-28